Time;durP1;ratioP1;P1;durP2;ratioP2;P2;SDS_P1;SDS_P2;PMS_P1;PMS_P2;Temp;Humidity;BMP_temperature;BMP_pressure;BME280_temperature;BME280_humidity;BME280_pressure;Samples;Min_cycle;Max_cycle;Signal;HPM_P1;HPM_P2
2021/10/25 00:01:29;;;;;;;6.07;4.03;;;2.70;99.90;2.20;97928.00;;;;5068662;28;20826;-71
2021/10/25 00:04:18;;;;;;;5.43;3.97;;;2.70;99.90;2.10;97930.00;;;;5080111;28;20429;-71
2021/10/25 00:07:07;;;;;;;7.33;3.50;;;3.30;99.90;2.00;97927.00;;;;5067210;28;20470;-72
2021/10/25 00:09:56;;;;;;;4.77;4.23;;;2.70;99.90;2.10;97925.00;;;;5074313;28;20430;-71
2021/10/25 00:12:45;;;;;;;9.37;4.13;;;2.70;99.90;1.90;97926.00;;;;5072154;28;20454;-72
2021/10/25 00:15:36;;;;;;;5.57;3.50;;;2.70;99.90;1.90;97920.00;;;;5072761;28;20423;-72
2021/10/25 00:18:25;;;;;;;5.93;3.73;;;2.60;99.90;1.90;97935.00;;;;5076531;28;20930;-72
2021/10/25 00:21:14;;;;;;;4.83;4.10;;;2.60;99.90;1.70;97925.00;;;;5073603;28;20457;-72
2021/10/25 00:24:04;;;;;;;7.43;3.87;;;2.50;99.90;1.60;97920.00;;;;5070182;28;20961;-72
2021/10/25 00:26:53;;;;;;;4.80;3.70;;;2.40;99.90;1.50;97915.00;;;;5066537;28;20462;-71
2021/10/25 00:29:42;;;;;;;5.87;3.97;;;2.40;99.90;1.60;97918.00;;;;5076217;28;20523;-72
2021/10/25 00:32:32;;;;;;;5.57;3.97;;;2.30;99.90;1.60;97918.00;;;;5067122;28;20851;-71
2021/10/25 00:35:21;;;;;;;6.90;4.30;;;2.40;99.90;1.40;97913.00;;;;5079373;28;20838;-72
2021/10/25 00:38:10;;;;;;;8.77;4.43;;;2.30;99.90;1.40;97921.00;;;;5066844;28;20441;-71
2021/10/25 00:40:59;;;;;;;4.77;4.27;;;2.30;99.90;1.30;97910.00;;;;5075000;28;20437;-71
2021/10/25 00:43:48;;;;;;;4.40;3.03;;;2.20;99.90;1.20;97919.00;;;;5066935;28;20422;-72
2021/10/25 00:46:36;;;;;;;5.47;4.97;;;2.20;99.90;1.30;97910.00;;;;5077379;28;20445;-72
2021/10/25 00:49:27;;;;;;;4.37;3.77;;;2.20;99.90;1.10;97914.00;;;;5079025;28;20426;-72
2021/10/25 00:52:18;;;;;;;4.40;3.87;;;2.10;99.90;1.30;97905.00;;;;5076109;28;20446;-72
2021/10/25 00:55:09;;;;;;;6.50;4.60;;;2.00;99.90;1.40;97905.00;;;;5065885;28;20419;-71
2021/10/25 00:57:58;;;;;;;4.17;3.83;;;2.00;99.90;1.40;97911.00;;;;5070036;28;20434;-72
2021/10/25 01:00:47;;;;;;;5.43;3.57;;;2.10;99.90;1.40;97901.00;;;;5069365;28;20446;-71
2021/10/25 01:03:36;;;;;;;7.03;4.47;;;2.10;99.90;1.40;97905.00;;;;5075308;28;20992;-72
2021/10/25 01:06:27;;;;;;;7.03;4.60;;;2.10;99.90;1.50;97894.00;;;;5065839;28;20430;-72
2021/10/25 01:09:17;;;;;;;8.63;4.47;;;2.10;99.90;1.30;97892.00;;;;5079897;28;20421;-72
2021/10/25 01:12:06;;;;;;;8.40;4.53;;;2.10;99.90;1.00;97897.00;;;;5065157;28;20465;-73
2021/10/25 01:14:55;;;;;;;6.33;3.87;;;2.00;99.90;0.80;97889.00;;;;5066483;28;20430;-72
2021/10/25 01:17:44;;;;;;;4.27;3.73;;;1.90;99.90;0.80;97881.00;;;;5071983;28;20422;-72
2021/10/25 01:20:34;;;;;;;5.97;4.27;;;1.80;99.90;0.80;97885.00;;;;5069081;28;20431;-72
2021/10/25 01:23:23;;;;;;;5.53;3.83;;;1.70;99.90;0.80;97887.00;;;;5074954;28;20441;-72
2021/10/25 01:26:13;;;;;;;6.47;4.10;;;1.70;99.90;0.90;97882.00;;;;5074589;28;20450;-72
2021/10/25 01:29:02;;;;;;;8.23;4.33;;;1.60;99.90;0.40;97886.00;;;;5064411;28;21016;-72
2021/10/25 01:31:51;;;;;;;4.00;3.70;;;1.50;99.90;0.40;97885.00;;;;5077346;28;20791;-72
2021/10/25 01:34:40;;;;;;;4.43;4.03;;;1.50;99.90;0.50;97875.00;;;;5064842;28;20426;-72
2021/10/25 01:37:30;;;;;;;6.67;4.77;;;1.40;99.90;0.50;97867.00;;;;5073637;28;20429;-72
2021/10/25 01:40:20;;;;;;;4.93;3.83;;;1.30;99.90;0.60;97866.00;;;;5065907;28;20418;-72
2021/10/25 01:43:09;;;;;;;6.97;4.87;;;1.30;99.90;0.60;97855.00;;;;5079170;28;20960;-71
2021/10/25 01:45:58;;;;;;;5.33;4.80;;;1.30;99.90;0.60;97848.00;;;;5064724;28;20422;-72
2021/10/25 01:48:48;;;;;;;4.43;4.00;;;1.40;99.90;0.70;97849.00;;;;5084620;28;20845;-73
2021/10/25 01:51:36;;;;;;;5.40;4.63;;;1.40;99.90;0.60;97848.00;;;;5067899;28;20443;-72
2021/10/25 01:54:27;;;;;;;5.87;4.10;;;1.40;99.90;0.60;97838.00;;;;5078569;28;20429;-72
2021/10/25 01:57:16;;;;;;;4.83;4.13;;;1.40;99.90;0.40;97833.00;;;;5064103;28;20445;-72
2021/10/25 02:00:06;;;;;;;8.27;4.23;;;1.30;99.90;0.30;97833.00;;;;5064192;28;20433;-72
2021/10/25 02:02:55;;;;;;;7.00;4.27;;;1.20;99.90;0.00;97837.00;;;;5068298;28;20441;-72
2021/10/25 02:05:44;;;;;;;4.27;3.97;;;1.10;99.90;0.10;97834.00;;;;5071361;28;20456;-72
2021/10/25 02:08:32;;;;;;;7.50;4.37;;;1.10;99.90;0.20;97830.00;;;;5075547;28;20461;-72
2021/10/25 02:11:23;;;;;;;5.30;4.10;;;1.00;99.90;0.10;97826.00;;;;5071476;28;20476;-72
2021/10/25 02:14:12;;;;;;;4.43;3.90;;;1.00;99.90;0.00;97834.00;;;;5068876;28;20426;-72
2021/10/25 02:17:00;;;;;;;8.57;4.57;;;1.00;99.90;0.10;97819.00;;;;5076747;28;20434;-72
2021/10/25 02:19:50;;;;;;;4.73;4.33;;;0.90;99.90;-0.10;97824.00;;;;5074343;28;20423;-72
2021/10/25 02:22:39;;;;;;;6.20;4.07;;;0.90;99.90;-0.20;97842.00;;;;5069177;28;20445;-71
2021/10/25 02:25:28;;;;;;;5.13;4.63;;;0.90;99.90;-0.10;97822.00;;;;5075864;28;20430;-72
2021/10/25 02:28:18;;;;;;;5.70;4.50;;;0.80;99.90;0.00;97826.00;;;;5075845;28;20473;-71
2021/10/25 02:31:08;;;;;;;6.07;5.43;;;0.90;99.90;0.20;97824.00;;;;5077053;28;20449;-71
2021/10/25 02:33:57;;;;;;;4.87;4.37;;;0.90;99.90;0.00;97820.00;;;;5069009;28;20434;-72
2021/10/25 02:36:46;;;;;;;5.70;4.70;;;0.90;99.90;-0.10;97819.00;;;;5081883;28;20421;-72
2021/10/25 02:39:35;;;;;;;7.13;4.87;;;0.90;99.90;-0.20;97832.00;;;;5068588;28;20430;-73
2021/10/25 02:42:24;;;;;;;5.13;4.20;;;0.80;99.90;-0.10;97825.00;;;;5076680;28;20445;-72
2021/10/25 02:45:15;;;;;;;4.87;4.17;;;0.80;99.90;-0.10;97827.00;;;;5075184;28;20797;-72
2021/10/25 02:48:05;;;;;;;4.67;4.23;;;0.70;99.90;0.00;97821.00;;;;5074431;28;20458;-71
2021/10/25 02:50:55;;;;;;;5.43;4.10;;;0.70;99.90;-0.10;97826.00;;;;5077653;28;20833;-72
2021/10/25 02:53:44;;;;;;;4.03;3.67;;;0.70;99.90;-0.40;97825.00;;;;5075591;28;20432;-72
2021/10/25 02:56:33;;;;;;;5.73;5.23;;;0.60;99.90;-0.40;97818.00;;;;5070199;28;20426;-71
2021/10/25 02:59:22;;;;;;;9.47;5.37;;;0.60;99.90;-0.50;97823.00;;;;5081993;28;20714;-73
2021/10/25 03:02:12;;;;;;;9.60;5.60;;;0.60;99.90;-0.40;97814.00;;;;5068358;28;20469;-73
2021/10/25 03:05:02;;;;;;;5.53;4.37;;;0.50;99.90;-0.40;97810.00;;;;5075549;28;20470;-70
2021/10/25 03:07:51;;;;;;;6.57;4.37;;;0.50;99.90;-0.60;97811.00;;;;5069694;28;20422;-73
2021/10/25 03:10:40;;;;;;;10.57;5.30;;;0.50;99.90;-0.60;97800.00;;;;5081396;28;20425;-72
2021/10/25 03:13:29;;;;;;;6.87;4.73;;;0.40;99.90;-0.70;97802.00;;;;5067650;28;20434;-72
2021/10/25 03:16:19;;;;;;;6.90;4.67;;;0.30;99.90;-0.60;97795.00;;;;5068742;28;20422;-72
2021/10/25 03:19:09;;;;;;;5.27;4.77;;;0.30;99.90;-0.70;97807.00;;;;5070582;28;20455;-72
2021/10/25 03:21:58;;;;;;;5.50;4.53;;;0.30;99.90;-0.60;97798.00;;;;5074343;28;20442;-72
2021/10/25 03:24:48;;;;;;;8.30;4.53;;;0.30;99.90;-0.50;97810.00;;;;5077125;28;20421;-72
2021/10/25 03:27:38;;;;;;;4.97;4.50;;;-0.40;99.90;-0.50;97799.00;;;;5068541;28;20430;-72
2021/10/25 03:30:27;;;;;;;6.73;4.60;;;0.30;99.90;-0.60;97802.00;;;;5081065;28;20513;-72
2021/10/25 03:33:16;;;;;;;4.87;4.37;;;0.30;99.90;-0.70;97796.00;;;;5080145;28;20429;-71
2021/10/25 03:36:07;;;;;;;8.33;4.97;;;0.30;99.90;-0.50;97794.00;;;;5076217;28;20827;-71
2021/10/25 03:38:58;;;;;;;9.00;4.83;;;0.30;99.90;-0.50;97810.00;;;;5072220;28;20430;-73
2021/10/25 03:41:48;;;;;;;6.33;4.67;;;0.30;99.90;-0.50;97793.00;;;;5068837;28;20465;-72
2021/10/25 03:44:43;;;;;;;5.23;4.73;;;0.30;99.90;-0.60;97799.00;;;;5080373;28;20430;-72
2021/10/25 03:47:36;;;;;;;4.80;4.40;;;0.30;99.90;-0.60;97792.00;;;;5077308;28;20654;-73
2021/10/25 03:50:28;;;;;;;5.67;4.37;;;0.20;99.90;-0.60;97783.00;;;;5066443;28;20993;-72
2021/10/25 03:53:25;;;;;;;9.67;4.97;;;0.20;99.90;-0.60;97803.00;;;;5071782;28;20495;-71
2021/10/25 03:56:18;;;;;;;5.33;4.27;;;0.20;99.90;-0.70;97802.00;;;;5070448;28;20426;-72
2021/10/25 04:27:16;;;;;;;5.87;4.67;;;0.00;99.90;-1.00;97793.00;;;;5072380;28;20970;-72
2021/10/25 04:30:06;;;;;;;9.70;4.50;;;-0.10;99.90;-0.90;97787.00;;;;5072950;28;20861;-71
2021/10/25 04:32:55;;;;;;;5.73;4.67;;;-0.10;99.90;-0.90;97789.00;;;;5076486;28;20430;-71
2021/10/25 04:35:44;;;;;;;9.70;5.23;;;-0.10;99.90;-0.80;97792.00;;;;5070892;28;20935;-71
2021/10/25 04:38:33;;;;;;;9.30;5.03;;;-0.10;99.90;-0.80;97795.00;;;;5068765;28;20427;-72
2021/10/25 04:41:23;;;;;;;7.57;5.43;;;0.00;99.90;-0.80;97790.00;;;;5078695;28;20437;-71
2021/10/25 04:44:12;;;;;;;5.33;4.83;;;0.00;99.90;-1.10;97785.00;;;;5077896;28;20423;-72
2021/10/25 04:47:01;;;;;;;4.60;4.10;;;-0.10;99.90;-1.00;97788.00;;;;5072050;28;20433;-70
2021/10/25 04:49:49;;;;;;;4.17;3.63;;;-0.10;99.90;-1.10;97788.00;;;;5082599;28;20839;-72
2021/10/25 04:52:39;;;;;;;4.80;4.40;;;-0.20;99.90;-1.10;97790.00;;;;5065269;28;20806;-71
2021/10/25 04:55:28;;;;;;;5.00;4.50;;;-0.20;99.90;-1.10;97774.00;;;;5074472;28;20426;-72
2021/10/25 04:58:18;;;;;;;5.43;4.80;;;-0.20;99.90;-1.10;97782.00;;;;5066324;28;20426;-72
2021/10/25 05:01:07;;;;;;;5.63;4.67;;;-0.20;99.90;-1.00;97769.00;;;;5077891;28;20445;-71
2021/10/25 05:03:56;;;;;;;6.37;5.37;;;-0.20;99.90;-1.20;97774.00;;;;5065554;28;20484;-71
2021/10/25 05:06:45;;;;;;;6.40;4.23;;;-0.20;99.90;-1.20;97771.00;;;;5073014;28;20723;-72
2021/10/25 05:09:34;;;;;;;7.37;4.40;;;-0.30;99.90;-1.10;97774.00;;;;5067423;28;20972;-72
2021/10/25 05:12:23;;;;;;;4.57;4.17;;;-0.30;99.90;-1.00;97774.00;;;;5078149;28;20457;-72
2021/10/25 05:15:13;;;;;;;15.80;9.60;;;-0.20;99.90;-1.20;97768.00;;;;5065174;28;20418;-73
2021/10/25 05:18:04;;;;;;;9.83;8.67;;;0.40;99.90;-1.80;97766.00;;;;5074092;28;20429;-72
2021/10/25 05:20:53;;;;;;;5.30;4.80;;;-0.40;99.90;-1.90;97760.00;;;;5066694;28;20446;-72
2021/10/25 05:23:41;;;;;;;9.23;7.23;;;-0.60;99.90;-1.70;97756.00;;;;5079651;28;20441;-69
2021/10/25 05:26:30;;;;;;;6.37;5.13;;;-0.70;99.90;-1.60;97769.00;;;;5076437;28;20421;-72
2021/10/25 05:29:19;;;;;;;5.47;4.53;;;-0.70;99.90;-1.70;97767.00;;;;5078495;28;21000;-72
2021/10/25 05:32:10;;;;;;;7.07;4.87;;;-0.70;99.90;-1.60;97758.00;;;;5069773;28;20446;-71
2021/10/25 05:34:59;;;;;;;6.10;5.00;;;-0.70;99.90;-1.70;97762.00;;;;5071750;28;20430;-71
2021/10/25 05:37:47;;;;;;;5.00;4.50;;;-0.70;99.90;-1.60;97767.00;;;;5075272;28;20444;-71
2021/10/25 05:40:38;;;;;;;6.83;5.33;;;-0.70;99.90;-1.50;97774.00;;;;5065467;28;20954;-72
2021/10/25 05:43:26;;;;;;;5.23;4.73;;;-0.60;99.90;-1.40;97770.00;;;;5079528;28;20945;-71
2021/10/25 05:46:15;;;;;;;5.83;5.27;;;-0.60;99.90;-1.30;97770.00;;;;5065857;28;20430;-70
2021/10/25 05:49:06;;;;;;;4.70;3.93;;;-0.50;99.90;-1.40;97777.00;;;;5074729;28;20440;-72
2021/10/25 05:51:55;;;;;;;5.23;4.77;;;-0.50;99.90;-1.60;97772.00;;;;5064743;28;20484;-72
2021/10/25 05:54:44;;;;;;;7.83;5.87;;;-0.50;99.90;-1.50;97768.00;;;;5078418;28;20425;-72
2021/10/25 05:57:33;;;;;;;5.63;5.13;;;-0.50;99.90;-1.50;97775.00;;;;5065006;28;20423;-72
2021/10/25 06:00:25;;;;;;;3.23;2.93;;;-0.60;99.90;-1.70;97777.00;;;;5064842;28;20423;-72
2021/10/25 06:03:18;;;;;;;4.43;4.03;;;-0.60;99.90;-1.60;97777.00;;;;5070162;28;20433;-72
2021/10/25 06:06:08;;;;;;;7.37;5.37;;;-0.60;99.90;-1.50;97783.00;;;;5069162;28;20446;-72
2021/10/25 06:08:57;;;;;;;7.70;4.53;;;-0.60;99.90;-1.30;97785.00;;;;5076212;28;20433;-72
2021/10/25 06:11:46;;;;;;;10.13;6.07;;;-0.50;99.90;-1.30;97787.00;;;;5075624;28;20446;-71
2021/10/25 06:14:39;;;;;;;6.23;4.70;;;-0.40;99.90;-1.40;97791.00;;;;5070747;28;20432;-71
2021/10/25 06:17:39;;;;;;;5.03;4.53;;;-0.40;99.90;-1.40;97779.00;;;;5068207;28;20427;-71
2021/10/25 06:20:30;;;;;;;6.47;4.27;;;-0.40;99.90;-1.20;97784.00;;;;5077104;28;20432;-71
2021/10/25 06:23:20;;;;;;;16.70;7.83;;;-0.40;99.90;-1.00;97791.00;;;;5064974;28;20426;-72
2021/10/25 06:26:09;;;;;;;8.87;6.80;;;-0.30;99.90;-1.10;97790.00;;;;5065632;28;20785;-72
2021/10/25 06:28:58;;;;;;;4.83;4.33;;;-0.30;99.90;-1.00;97783.00;;;;5068852;28;20426;-71
2021/10/25 06:31:47;;;;;;;9.37;8.23;;;-0.20;99.90;-1.10;97780.00;;;;5071103;28;20461;-72
2021/10/25 06:34:39;;;;;;;4.13;3.73;;;-0.20;99.90;-1.20;97788.00;;;;5073636;28;20434;-72
2021/10/25 06:37:34;;;;;;;3.63;2.60;;;-0.20;99.90;-1.50;97788.00;;;;5072558;28;20968;-72
2021/10/25 06:40:26;;;;;;;6.60;4.70;;;-0.20;99.90;-1.30;97783.00;;;;5066813;28;20418;-71
2021/10/25 06:43:15;;;;;;;9.53;5.90;;;-0.30;99.90;-1.10;97783.00;;;;5076764;28;20426;-71
2021/10/25 06:46:05;;;;;;;4.93;2.97;;;-0.30;99.90;-1.30;97788.00;;;;5063955;28;20425;-72
2021/10/25 06:48:54;;;;;;;3.57;3.27;;;-0.20;99.90;-1.20;97790.00;;;;5072794;28;20425;-72
2021/10/25 06:51:43;;;;;;;4.40;3.13;;;-0.20;99.90;-1.10;97797.00;;;;5066017;28;20470;-72
2021/10/25 06:54:33;;;;;;;9.13;5.60;;;-0.10;99.90;-0.90;97786.00;;;;5078716;28;20436;-72
2021/10/25 06:57:23;;;;;;;14.27;4.83;;;0.00;99.90;-0.80;97802.00;;;;5063725;28;20426;-71
2021/10/25 07:00:13;;;;;;;7.43;3.97;;;0.00;99.90;-0.80;97809.00;;;;5073408;28;20448;-71
2021/10/25 07:03:02;;;;;;;7.23;6.10;;;0.10;99.90;-0.50;97812.00;;;;5066262;28;20446;-71
2021/10/25 07:05:51;;;;;;;10.30;5.90;;;0.20;99.90;-0.30;97806.00;;;;5064467;28;20426;-71
2021/10/25 07:08:39;;;;;;;10.33;5.67;;;0.40;99.90;-0.20;97807.00;;;;5074949;28;20422;-72
2021/10/25 07:11:29;;;;;;;8.93;6.03;;;0.60;99.90;0.00;97824.00;;;;5068762;28;20471;-72
2021/10/25 07:14:25;;;;;;;5.80;5.20;;;0.70;99.90;0.00;97814.00;;;;5068247;28;20426;-71
2021/10/25 07:17:21;;;;;;;8.17;7.47;;;0.80;99.90;0.20;97817.00;;;;5080372;28;20425;-71
2021/10/25 07:20:36;;;;;;;9.30;8.40;;;0.90;99.90;0.30;97820.00;;;;5072457;28;20434;-71
2021/10/25 07:23:42;;;;;;;7.47;5.00;;;0.90;99.90;0.20;97817.00;;;;5073939;28;20434;-71
2021/10/25 08:07:25;;;;;;;11.50;7.47;;;3.60;99.90;3.90;97817.00;;;;5080562;28;20438;-70
2021/10/25 08:10:17;;;;;;;11.70;7.67;;;3.80;99.90;4.10;97823.00;;;;5075041;28;20441;-71
2021/10/25 08:13:11;;;;;;;14.07;7.87;;;4.10;99.90;4.30;97815.00;;;;5067216;28;20952;-70
2021/10/25 08:16:09;;;;;;;9.63;7.10;;;4.30;99.90;4.40;97821.00;;;;5072622;28;20461;-71
2021/10/25 08:19:14;;;;;;;7.87;7.00;;;4.50;99.90;4.70;97821.00;;;;5074346;28;20437;-70
2021/10/25 08:22:05;;;;;;;9.07;7.03;;;4.70;99.90;4.80;97817.00;;;;5077336;28;20233;-69
2021/10/25 08:24:54;;;;;;;9.60;7.00;;;4.90;99.90;4.90;97809.00;;;;5077531;28;20674;-69
2021/10/25 08:27:44;;;;;;;10.77;7.10;;;5.10;99.90;5.20;97815.00;;;;5073939;28;20561;-69
2021/10/25 08:30:33;;;;;;;10.13;6.67;;;5.20;99.90;5.30;97812.00;;;;5088611;28;20233;-70
2021/10/25 08:33:44;;;;;;;7.80;5.70;;;5.40;99.90;5.60;97818.00;;;;5082681;28;20199;-71
2021/10/25 08:39:46;;;;;;;8.47;6.30;;;5.50;99.90;6.00;97818.00;;;;5069395;28;20208;-71
2021/10/25 08:39:58;;;;;;;8.33;5.80;;;5.80;99.90;6.00;97819.00;;;;5079510;28;20235;-71
2021/10/25 08:42:47;;;;;;;6.87;6.10;;;6.00;99.90;6.10;97834.00;;;;5077794;28;20237;-74
2021/10/25 08:45:38;;;;;;;7.17;5.90;;;6.20;99.90;6.30;97824.00;;;;5079164;28;20600;-72
2021/10/25 08:48:28;;;;;;;8.93;6.53;;;6.40;99.90;6.40;97831.00;;;;5090828;28;20206;-70
2021/10/25 08:51:18;;;;;;;9.60;6.50;;;6.50;99.90;6.70;97836.00;;;;5092646;28;20230;-69
2021/10/25 08:54:08;;;;;;;8.47;6.07;;;6.70;99.90;6.90;97820.00;;;;5077691;28;20214;-72
2021/10/25 08:57:00;;;;;;;10.20;6.03;;;6.90;99.90;7.00;97828.00;;;;5065428;28;20204;-72
2021/10/25 08:59:58;;;;;;;8.03;5.57;;;7.00;99.90;7.20;97823.00;;;;5065105;28;20200;-73
2021/10/25 09:02:58;;;;;;;9.13;5.37;;;7.20;99.90;7.50;97828.00;;;;5070959;28;20228;-73
2021/10/25 09:05:58;;;;;;;6.73;5.07;;;7.40;99.90;7.80;97819.00;;;;5067064;28;20207;-72
2021/10/25 09:08:58;;;;;;;6.00;5.50;;;7.60;99.90;8.00;97809.00;;;;5064651;28;20226;-72
2021/10/25 09:12:05;;;;;;;7.77;5.53;;;7.80;99.90;8.20;97812.00;;;;5075130;28;20235;-72
2021/10/25 09:14:58;;;;;;;6.17;5.10;;;8.00;99.90;8.50;97818.00;;;;5072698;28;21336;-72
2021/10/25 09:17:47;;;;;;;10.80;5.07;;;8.20;99.90;8.70;97816.00;;;;5074531;28;20701;-73
2021/10/25 09:20:49;;;;;;;11.07;5.10;;;8.40;99.90;8.90;97807.00;;;;5078283;28;20671;-73
2021/10/25 09:23:42;;;;;;;7.33;5.63;;;8.60;99.90;9.10;97808.00;;;;5070742;28;20209;-72
2021/10/25 09:26:32;;;;;;;5.73;5.23;;;8.80;99.90;9.20;97806.00;;;;5070941;28;20203;-73
2021/10/25 09:29:27;;;;;;;8.60;4.87;;;8.90;99.90;8.50;97802.00;;;;5081850;28;20678;-73
2021/10/25 09:32:15;;;;;;;7.37;6.00;;;9.00;99.90;8.90;97794.00;;;;5079437;28;20223;-73
2021/10/25 09:35:15;;;;;;;5.33;4.73;;;9.10;99.90;9.70;97796.00;;;;5079460;28;20943;-72
2021/10/25 09:38:20;;;;;;;6.60;5.43;;;9.30;99.90;10.10;97805.00;;;;5066621;28;20215;-73
2021/10/25 09:50:49;;;;;;;4.60;4.03;;;10.30;99.90;11.00;97793.00;;;;5064860;28;20219;-72
2021/10/25 09:53:43;;;;;;;7.83;4.43;;;10.60;99.90;10.90;97797.00;;;;5070244;28;20211;-73
2021/10/25 09:56:35;;;;;;;9.80;4.67;;;10.70;99.90;11.40;97798.00;;;;5065639;28;20208;-73
2021/10/25 09:59:33;;;;;;;6.67;3.70;;;10.80;99.90;11.60;97798.00;;;;5066193;28;20203;-72
2021/10/25 10:02:25;;;;;;;7.53;4.10;;;11.00;99.90;11.50;97781.00;;;;5073749;28;20224;-72
2021/10/25 10:05:17;;;;;;;6.53;4.27;;;11.20;99.90;11.70;97787.00;;;;5073028;28;20263;-72
2021/10/25 10:08:07;;;;;;;8.83;4.27;;;11.30;99.90;11.80;97778.00;;;;5066555;28;20200;-72
2021/10/25 10:10:56;;;;;;;5.67;4.20;;;11.40;99.90;11.90;97783.00;;;;5067908;28;20216;-73
2021/10/25 10:13:46;;;;;;;8.10;4.20;;;11.60;99.90;11.60;97780.00;;;;5069212;28;20712;-74
2021/10/25 10:16:37;;;;;;;4.70;3.67;;;11.80;99.90;11.40;97767.00;;;;5064562;28;20200;-73
2021/10/25 10:19:29;;;;;;;6.93;4.60;;;11.80;99.90;12.10;97782.00;;;;5066220;28;20208;-73
2021/10/25 10:22:19;;;;;;;4.80;4.30;;;12.00;99.90;13.00;97774.00;;;;5063987;28;20234;-73
2021/10/25 10:25:09;;;;;;;6.93;4.27;;;12.40;99.90;12.40;97769.00;;;;5077616;28;20226;-73
2021/10/25 10:28:01;;;;;;;4.47;3.50;;;12.80;99.90;13.70;97756.00;;;;5064771;28;20608;-73
2021/10/25 10:30:53;;;;;;;6.67;4.23;;;13.10;99.90;14.30;97759.00;;;;5064464;28;20798;-73
2021/10/25 10:33:46;;;;;;;7.63;3.10;;;13.60;99.90;14.80;97759.00;;;;5065282;28;20262;-73
2021/10/25 10:36:36;;;;;;;5.20;2.97;;;14.00;99.90;15.20;97756.00;;;;5058127;28;20196;-73
2021/10/25 10:39:29;;;;;;;6.93;2.93;;;14.50;99.90;13.80;97741.00;;;;5064876;28;20709;-73
2021/10/25 10:42:26;;;;;;;6.53;4.13;;;14.90;94.10;12.10;97730.00;;;;5068274;28;20241;-73
2021/10/25 10:45:21;;;;;;;5.63;3.73;;;14.20;90.70;12.60;97723.00;;;;5076582;28;20249;-73
2021/10/25 10:48:10;;;;;;;5.87;3.50;;;13.70;91.60;14.10;97731.00;;;;5078031;28;20192;-73
2021/10/25 10:51:05;;;;;;;3.70;2.73;;;13.70;93.40;15.30;97734.00;;;;5077613;28;20267;-72
2021/10/25 10:54:10;;;;;;;5.90;3.73;;;14.20;94.10;15.80;97725.00;;;;5073086;28;20593;-73
2021/10/25 10:57:07;;;;;;;5.07;3.13;;;14.80;93.60;15.60;97713.00;;;;5075909;28;20204;-72
2021/10/25 11:00:01;;;;;;;3.73;2.60;;;15.20;90.00;15.60;97711.00;;;;5078803;28;20206;-72
2021/10/25 11:02:54;;;;;;;4.17;2.57;;;15.70;86.10;15.90;97723.00;;;;5074089;28;20215;-73
2021/10/25 11:05:46;;;;;;;4.20;2.73;;;16.10;81.00;16.40;97715.00;;;;5072459;28;20227;-73
2021/10/25 11:08:36;;;;;;;3.50;2.50;;;16.30;79.40;16.20;97723.00;;;;5078540;28;20206;-73
2021/10/25 11:11:26;;;;;;;5.10;2.50;;;16.50;74.40;16.80;97714.00;;;;5070429;28;20380;-73
2021/10/25 11:14:18;;;;;;;4.83;2.10;;;16.70;72.20;17.10;97706.00;;;;5074977;28;20225;-72
2021/10/25 11:17:22;;;;;;;3.63;2.37;;;17.00;71.70;17.30;97706.00;;;;5074254;28;20219;-73
2021/10/25 11:20:11;;;;;;;4.23;2.47;;;17.10;69.70;16.90;97693.00;;;;5081244;28;20209;-73
2021/10/25 11:23:07;;;;;;;3.13;2.50;;;17.30;64.60;17.40;97687.00;;;;5079606;28;20219;-73
2021/10/25 11:25:55;;;;;;;2.60;1.87;;;17.30;65.10;17.20;97686.00;;;;5069056;28;20588;-73
2021/10/25 11:29:08;;;;;;;3.23;1.60;;;17.50;63.10;17.70;97681.00;;;;5070643;28;20200;-73
2021/10/25 11:32:02;;;;;;;4.23;1.77;;;17.90;60.00;18.20;97681.00;;;;5074295;28;20223;-73
2021/10/25 11:34:56;;;;;;;2.80;1.77;;;18.30;59.70;13.80;97653.00;;;;5077558;28;20208;-74
2021/10/25 11:37:49;;;;;;;3.73;1.90;;;17.90;56.10;16.60;97666.00;;;;5077334;28;20203;-73
2021/10/25 11:40:39;;;;;;;3.37;2.13;;;17.50;58.70;14.60;97642.00;;;;5074690;28;20211;-73
2021/10/25 11:43:31;;;;;;;7.83;2.43;;;17.20;57.80;14.60;97637.00;;;;5074822;28;20223;-73
2021/10/25 11:46:23;;;;;;;3.10;2.30;;;16.80;58.70;13.80;97632.00;;;;5063273;28;20200;-75
2021/10/25 11:49:12;;;;;;;3.90;2.83;;;15.60;62.30;14.60;97639.00;;;;5081883;28;20195;-75
2021/10/25 11:52:01;;;;;;;4.80;2.37;;;16.00;61.00;14.80;97632.00;;;;5092084;28;20234;-73
2021/10/25 11:54:53;;;;;;;3.03;2.50;;;16.10;60.90;16.00;97641.00;;;;5084250;28;20196;-72
2021/10/25 11:57:48;;;;;;;2.90;2.40;;;16.30;60.90;13.90;97640.00;;;;5071314;28;20219;-73
2021/10/25 12:00:40;;;;;;;4.77;2.13;;;16.10;60.70;14.30;97613.00;;;;5073236;28;20207;-73
2021/10/25 12:03:30;;;;;;;5.43;3.10;;;16.00;61.50;16.00;97630.00;;;;5071709;28;20262;-72
2021/10/25 12:06:22;;;;;;;4.57;2.97;;;16.10;63.90;18.00;97638.00;;;;5074155;28;20215;-73
2021/10/25 12:09:12;;;;;;;3.73;2.87;;;16.70;64.10;18.70;97640.00;;;;5083415;28;20225;-73
2021/10/25 12:12:09;;;;;;;3.67;2.73;;;17.60;62.90;18.50;97634.00;;;;5083127;28;20216;-73
2021/10/25 12:15:01;;;;;;;4.77;2.50;;;18.30;59.70;18.40;97632.00;;;;5072631;28;20597;-73
2021/10/25 12:17:50;;;;;;;4.40;2.43;;;18.70;58.40;18.00;97630.00;;;;5066132;28;20208;-73
2021/10/25 12:20:42;;;;;;;2.97;2.50;;;19.00;58.40;17.20;97627.00;;;;5077228;28;20207;-73
2021/10/25 12:23:50;;;;;;;3.63;2.80;;;19.00;56.00;17.50;97622.00;;;;5076679;28;20284;-72
2021/10/25 12:26:41;;;;;;;3.90;2.37;;;19.10;55.90;16.40;97613.00;;;;5065999;28;20211;-72
2021/10/25 12:29:30;;;;;;;4.77;3.03;;;18.80;55.80;15.20;97599.00;;;;5068303;28;20578;-72
2021/10/25 12:32:19;;;;;;;6.60;3.00;;;18.40;56.10;15.90;97578.00;;;;5068138;28;20695;-72
2021/10/25 12:35:11;;;;;;;3.23;2.93;;;17.90;56.90;14.90;97578.00;;;;5069651;28;20272;-72
2021/10/25 12:38:02;;;;;;;5.70;3.33;;;17.10;57.70;15.50;97584.00;;;;5069807;28;20478;-72
2021/10/25 12:40:54;;;;;;;3.57;3.00;;;17.20;57.40;14.90;97580.00;;;;5065186;28;20252;-73
2021/10/25 12:43:48;;;;;;;5.00;2.63;;;17.20;57.20;17.20;97591.00;;;;5071135;28;20211;-71
2021/10/25 12:46:39;;;;;;;7.33;3.27;;;17.10;58.20;18.80;97591.00;;;;5078520;28;20212;-72
2021/10/25 12:49:28;;;;;;;9.27;2.97;;;17.70;58.40;18.00;97577.00;;;;5074195;28;20204;-73
2021/10/25 12:52:19;;;;;;;5.13;3.23;;;18.40;57.00;18.10;97586.00;;;;5064811;28;20361;-72
2021/10/25 12:55:10;;;;;;;6.13;2.87;;;18.60;56.00;19.40;97588.00;;;;5071708;28;20572;-71
2021/10/25 12:57:59;;;;;;;6.20;2.97;;;18.90;56.10;19.20;97573.00;;;;5074692;28;20743;-71
2021/10/25 13:00:48;;;;;;;5.80;3.10;;;19.30;55.00;19.20;97581.00;;;;5084767;28;20258;-71
2021/10/25 13:03:37;;;;;;;5.63;2.93;;;19.40;54.80;17.60;97581.00;;;;5081412;28;20550;-72
2021/10/25 13:06:29;;;;;;;5.63;3.50;;;19.60;53.90;16.00;97573.00;;;;5077194;28;20215;-72
2021/10/25 13:09:18;;;;;;;9.40;3.90;;;19.20;53.40;16.20;97588.00;;;;5069978;28;20200;-72
2021/10/25 13:12:09;;;;;;;5.90;4.03;;;18.70;54.30;14.50;97568.00;;;;5071642;28;20301;-72
2021/10/25 13:14:58;;;;;;;3.20;2.73;;;17.70;55.50;16.90;97579.00;;;;5067582;28;20628;-72
2021/10/25 13:17:56;;;;;;;5.60;3.33;;;17.40;57.10;18.00;97590.00;;;;5063875;28;20247;-72
2021/10/25 13:20:45;;;;;;;5.90;3.30;;;17.50;58.00;18.00;97578.00;;;;5095550;28;20218;-72
2021/10/25 13:23:36;;;;;;;6.47;3.33;;;17.80;57.90;18.20;97581.00;;;;5073502;28;20578;-71
2021/10/25 13:26:26;;;;;;;6.47;2.93;;;18.10;57.30;18.60;97584.00;;;;5095683;28;20217;-71
2021/10/25 13:29:16;;;;;;;4.53;3.33;;;18.20;57.30;19.00;97578.00;;;;5079763;28;20203;-71
2021/10/25 13:32:06;;;;;;;5.07;3.53;;;18.50;57.00;19.30;97578.00;;;;5074089;28;20222;-71
2021/10/25 13:34:54;;;;;;;7.17;3.20;;;18.80;56.60;19.90;97580.00;;;;5073041;28;20218;-72
2021/10/25 13:37:45;;;;;;;6.93;3.40;;;19.20;56.00;18.30;97564.00;;;;5090213;28;20682;-72
2021/10/25 13:40:34;;;;;;;6.20;3.03;;;19.60;54.50;18.00;97558.00;;;;5079504;28;20200;-71
2021/10/25 13:43:23;;;;;;;5.00;2.97;;;19.50;54.20;15.90;97554.00;;;;5065287;28;20220;-71
2021/10/25 13:46:13;;;;;;;4.17;2.67;;;19.00;53.50;16.50;97548.00;;;;5069033;28;20200;-71
2021/10/25 13:49:04;;;;;;;3.00;2.70;;;18.40;54.40;15.60;97554.00;;;;5075578;28;20203;-70
2021/10/25 13:51:53;;;;;;;7.57;3.10;;;17.80;55.00;15.30;97548.00;;;;5062539;28;20540;-71
2021/10/25 13:54:42;;;;;;;5.13;3.20;;;17.10;55.80;15.10;97538.00;;;;5077657;28;20203;-72
2021/10/25 13:57:35;;;;;;;4.70;3.17;;;16.80;56.80;16.30;97553.00;;;;5076733;28;20195;-73
2021/10/25 14:00:24;;;;;;;4.30;3.23;;;16.50;57.90;16.30;97554.00;;;;5064161;28;20552;-72
2021/10/25 14:03:15;;;;;;;4.10;3.10;;;16.40;58.20;15.70;97554.00;;;;5075217;28;20224;-72
2021/10/25 14:06:07;;;;;;;3.23;3.00;;;16.40;58.40;15.20;97562.00;;;;5064204;28;20208;-71